Genevia, Arkansas
Current Conditions -  °F | °C
As of 11:53 AM on Thursday 27 Nov 2014 (Local Time) from KLIT Reporting Station
Scattered Clouds Scattered Clouds  
Wind Chill: 45°   Ceiling: Unl
Heat Index: 45°   Visibility: 10mi
Dew Point: 23°   Wind: 0mph
Humidity: 42%   Direction: NA
Pressure: 30.53"   Gusts: NA
Location:  34.7066°N, 92.2297°W
Report Text: KLIT 271753Z 00000KT 10SM SCT250 07/M05 A3053 RMK AO2 SLP343 T00721050 10083 20011 58001
Loading
Personal Weather Stations






























Interactive Weather Map New forecast layout! Learn more

10-Day Weather Forecast

Advertisements
Track Severe Weather on mobile